createdAt,value
2022-09-23T00:09:26.190Z,8.70
2022-09-23T00:29:26.154Z,8.42
2022-09-23T00:49:26.104Z,8.39
2022-09-23T01:09:26.104Z,8.29
2022-09-23T01:29:26.075Z,8.05
2022-09-23T01:49:26.048Z,8.20
2022-09-23T02:09:26.036Z,8.52
2022-09-23T02:29:26.008Z,8.31
2022-09-23T02:49:25.998Z,8.13
2022-09-23T03:09:25.980Z,8.06
2022-09-23T03:29:25.990Z,7.92
2022-09-23T03:49:25.951Z,7.57
2022-09-23T04:09:25.936Z,7.30
2022-09-23T04:29:25.921Z,7.64
2022-09-23T04:49:25.899Z,7.45
2022-09-23T05:09:25.888Z,7.34
2022-09-23T05:29:25.894Z,7.56
2022-09-23T05:49:25.926Z,7.69
2022-09-23T06:09:25.885Z,7.24
2022-09-23T06:29:25.823Z,7.76
2022-09-23T06:49:25.798Z,8.41
2022-09-23T07:09:25.788Z,8.99
2022-09-23T07:29:25.758Z,9.45
2022-09-23T07:49:25.731Z,10.25
2022-09-23T08:09:25.712Z,10.73
2022-09-23T08:29:25.697Z,11.39
2022-09-23T08:49:25.672Z,12.13
2022-09-23T09:09:25.668Z,12.67
2022-09-23T09:29:25.630Z,13.39
2022-09-23T09:49:25.608Z,13.96
2022-09-23T10:09:25.518Z,14.69
2022-09-23T10:29:25.547Z,15.07
2022-09-23T10:49:25.482Z,15.61
2022-09-23T11:09:25.483Z,16.32
2022-09-23T11:29:25.433Z,16.66
2022-09-23T11:49:25.413Z,17.03
2022-09-23T12:09:25.393Z,17.24
2022-09-23T12:29:25.498Z,17.82
2022-09-23T12:49:25.493Z,17.88
2022-09-23T13:09:25.474Z,18.26
2022-09-23T13:29:25.411Z,18.21
2022-09-23T13:49:25.379Z,18.21
2022-09-23T14:09:25.395Z,18.27
2022-09-23T14:29:25.318Z,18.16
2022-09-23T14:49:25.332Z,17.95
2022-09-23T15:09:25.267Z,17.61
2022-09-23T15:29:25.272Z,17.35
2022-09-23T15:49:25.224Z,17.03
2022-09-23T16:09:25.246Z,16.80
2022-09-23T16:29:25.112Z,16.34
2022-09-23T16:49:25.023Z,15.97
2022-09-23T17:09:25.046Z,15.75
2022-09-23T17:29:25.087Z,15.47
2022-09-23T17:49:25.037Z,15.06
2022-09-23T18:09:24.924Z,14.52
2022-09-23T18:29:24.960Z,13.98
2022-09-23T18:49:24.878Z,13.87
2022-09-23T19:09:24.840Z,13.73
2022-09-23T19:29:24.827Z,13.27
2022-09-23T19:49:24.798Z,12.87
2022-09-23T20:09:24.801Z,12.84
2022-09-23T20:29:24.823Z,12.48
2022-09-23T20:49:24.818Z,12.52
2022-09-23T21:09:24.720Z,12.33
2022-09-23T21:29:24.710Z,12.13
2022-09-23T21:49:24.646Z,12.20
2022-09-23T22:09:24.624Z,12.02
2022-09-23T22:29:24.603Z,11.92
2022-09-23T22:49:24.580Z,11.92
2022-09-23T23:09:24.588Z,11.91
2022-09-23T23:29:24.530Z,11.80
2022-09-23T23:49:24.509Z,11.74
